In Rescue
 
Open Full Screen Window  High Contrast Mode
Wind Gusting 00 knots
06
May 13, 2021 12:36 PM EDT
Weather Information
Wind Direction
  210 °
Wind Speed
  06 kt (7 mph)
Wind Gust
  00 kt (0 mph)
Altimeter
30.38 in
Visibility
10 SM
Temperature
18° C
64° F
Dewpoint
-01° C
30° F
Humidity
28%
1hr Rain Fall
00.00 in.
24hr Rain Fall
00.00 in.
Sky Condition
Clear
VFR

METAR KIKW 131636Z AUTO 21006KT 10SM CLR 18/M01 A3038 RMK AO2 T01771013

FAA Disclaimer: The data displayed is for advisory purposes only and is not to be used for flight planning or operations.